Tropical Cyclones
[Index]
Main Index Home Page Stock Weather Photos Extreme Storms Discussion Storm News and Storm Chasing Reports Tropical Cyclones / Hurricanes / Typhoons Weather Data and Links Wild Fires / Bushfires Weather Observation Techniques Weather Picture Catalogue Tornado Pictures and Reports Stock Video Footage and DVDs for sale
Season 1972-1973 Tropical Cyclone KERRY Track Map
Season 1972-1973 Summaries: [BoM-AU] [JTWC-AU] [JTWC-SIO] [JTWC-SPAC] [JTWC-SH]
<<- Previous TC | BoM 1972-1973 Season | Next TC ->>

click for intensity scale information  Lat/long Grid: Show Hide

 Date Labels: Show Hide

Bureau of Meteorology Tropical Cyclone Data

Name: KERRY
Number: 500 / 197273_03

19 Jan 1973 01:00 UTC to 24 Jan 1973 04:00 UTC

    date/time    lat    long    hPa   cat  kts
1973-01-19 01   14.7   120.0   1007                     
1973-01-19 04   14.1   119.7   1004                     
1973-01-19 07   14.8   119.5   1002                     
1973-01-19 10   14.8   119.3   1001                     
1973-01-19 13   14.9   119.5   1001                     
1973-01-19 16   15.0   119.0   1001                     
1973-01-19 19   15.2   118.7   1001                     
1973-01-19 22   15.5   118.5   1000                     
1973-01-20 01   15.9   118.3    999                     
1973-01-20 04   16.2   118.2    998                     
1973-01-20 07   16.6   118.1    996                     
1973-01-20 10   16.9   118.0    994    1                
1973-01-20 13   17.2   117.9    992    1                
1973-01-20 16   17.5   117.8    990    1                
1973-01-20 19   17.8   117.5    988    1                
1973-01-20 22   18.0   117.3    986    1                
1973-01-21 01   18.2   117.2    984    2                
1973-01-21 04   18.1   117.0    980    2                
1973-01-21 07   18.8   116.8    975    2                
1973-01-21 10   19.2   116.7    970    3                
1973-01-21 13   19.5   116.9    960    3                
1973-01-21 16   20.0   117.2    960    3                
1973-01-21 19   20.4   117.4    960    3                
1973-01-21 22   20.8   117.6    962    3                
1973-01-22 01   21.1   117.8    965    3                
1973-01-22 04   21.5   118.0    970    3                
1973-01-22 07   21.9   118.2    970    3                
1973-01-22 10   22.3   118.4    970    3                
1973-01-22 13   22.6   118.6    972    2                
1973-01-22 16   23.0   118.9    975    2                
1973-01-22 19   23.2   119.0    977    2                
1973-01-22 22   23.5   119.3    980    2                
1973-01-23 01   23.8   119.6    985    2                
1973-01-23 04   24.2   120.0    985    2                
1973-01-23 07   24.5   120.3    987    1                
1973-01-23 10   24.8   120.5    990    1                
1973-01-23 13   25.0   120.5    991    1                
1973-01-23 16   25.3   120.6    993    1                
1973-01-23 19   25.7   120.5    993    1                
1973-01-23 22   26.0   120.4    993    1                
1973-01-24 01   26.3   120.4    996                     
1973-01-24 04   26.6   120.4    996                     
Winds are 10-min average.

Tropical cyclone tracks developed by Michael Bath using data from the Bureau of Meteorology and Google Maps.


[Australian Severe Weather index] [Copyright Notice] [Email Contacts] [Search This Site] [Privacy Policy]
Document: tropical_cyclone_kerry.htm Updated: 30 May 2013